Time;durP1;ratioP1;P1;durP2;ratioP2;P2;SDS_P1;SDS_P2;PMS_P1;PMS_P2;Temp;Humidity;BMP_temperature;BMP_pressure;BME280_temperature;BME280_humidity;BME280_pressure;Samples;Min_cycle;Max_cycle;Signal;HPM_P1;HPM_P2
2023/12/11 00:00:05;;;;;;;26.02;3.92;;;9.90;99.90;;;;;;5033574;28;20053;-56
2023/12/11 00:02:32;;;;;;;48.37;5.53;;;9.90;99.90;;;;;;5033392;28;20052;-56
2023/12/11 00:04:57;;;;;;;45.03;5.82;;;9.90;99.90;;;;;;5032014;28;20479;-58
2023/12/11 00:07:23;;;;;;;36.80;5.07;;;9.90;99.90;;;;;;5033067;28;20035;-57
2023/12/11 00:09:49;;;;;;;22.80;4.13;;;9.90;99.90;;;;;;5033084;28;20497;-58
2023/12/11 00:12:15;;;;;;;25.00;4.38;;;9.90;99.90;;;;;;5033061;28;20037;-57
2023/12/11 00:14:41;;;;;;;40.47;4.28;;;9.90;99.90;;;;;;5033670;28;20029;-58
2023/12/11 00:17:07;;;;;;;39.50;5.43;;;9.90;99.90;;;;;;5033376;28;20037;-55
2023/12/11 00:19:32;;;;;;;29.75;3.30;;;9.90;99.90;;;;;;5031695;28;20026;-57
2023/12/11 00:21:58;;;;;;;33.58;4.00;;;9.90;99.90;;;;;;5032662;28;20147;-55
2023/12/11 00:24:24;;;;;;;36.80;4.32;;;9.90;99.90;;;;;;5032531;28;20779;-56
2023/12/11 00:26:49;;;;;;;30.88;4.32;;;9.90;99.90;;;;;;5032817;28;20040;-57
2023/12/11 00:29:15;;;;;;;29.83;4.20;;;9.90;99.90;;;;;;5032888;28;20029;-57
2023/12/11 00:31:41;;;;;;;40.33;4.50;;;10.00;99.90;;;;;;5032868;28;20224;-56
2023/12/11 00:34:06;;;;;;;56.58;6.18;;;9.90;99.90;;;;;;5032750;28;20542;-56
2023/12/11 00:36:32;;;;;;;33.45;4.78;;;10.00;99.90;;;;;;5032740;28;20100;-55
2023/12/11 00:38:58;;;;;;;41.17;5.05;;;10.00;99.90;;;;;;5032650;28;20022;-54
2023/12/11 00:41:23;;;;;;;31.27;4.38;;;10.10;99.90;;;;;;5032345;28;20017;-54
2023/12/11 00:43:51;;;;;;;41.38;4.88;;;10.10;99.90;;;;;;5032526;28;20026;-56
2023/12/11 00:46:21;;;;;;;;;;;10.20;99.90;;;;;;5032142;28;20501;-57
2023/12/11 00:48:46;;;;;;;45.47;3.40;;;10.20;99.90;;;;;;5032638;28;20290;-57
2023/12/11 00:51:19;;;;;;;39.58;5.10;;;10.20;99.90;;;;;;5032693;28;20037;-57
2023/12/11 00:53:46;;;;;;;24.83;4.90;;;10.30;99.90;;;;;;5032864;28;20505;-55
2023/12/11 00:56:12;;;;;;;40.95;4.45;;;10.30;99.90;;;;;;5032869;28;20053;-51
2023/12/11 00:58:37;;;;;;;35.38;7.07;;;10.30;99.90;;;;;;5032271;28;20494;-55
2023/12/11 01:01:04;;;;;;;44.17;4.63;;;10.40;99.90;;;;;;5032394;28;20025;-55
2023/12/11 01:03:29;;;;;;;27.98;4.60;;;10.40;99.90;;;;;;5032480;28;20394;-54
2023/12/11 01:05:55;;;;;;;52.90;5.85;;;10.40;99.90;;;;;;5032486;28;20025;-56
2023/12/11 01:08:21;;;;;;;34.40;3.67;;;10.40;99.90;;;;;;5032732;28;20079;-56
2023/12/11 01:10:47;;;;;;;26.58;3.85;;;10.50;99.90;;;;;;5032401;28;20040;-57
2023/12/11 01:13:12;;;;;;;35.95;7.82;;;10.50;99.90;;;;;;5032190;28;20052;-54
2023/12/11 01:15:38;;;;;;;35.15;4.55;;;10.50;99.90;;;;;;5032383;28;20029;-57
2023/12/11 01:18:04;;;;;;;28.08;4.53;;;10.50;99.90;;;;;;5032123;28;20134;-55
2023/12/11 01:20:30;;;;;;;36.55;5.28;;;10.50;99.90;;;;;;5032658;28;20036;-57
2023/12/11 01:22:55;;;;;;;38.22;4.85;;;10.50;99.90;;;;;;5032080;28;20057;-57
2023/12/11 01:25:21;;;;;;;29.90;4.47;;;10.50;99.90;;;;;;5032271;28;20017;-55
2023/12/11 01:27:46;;;;;;;48.10;4.25;;;10.50;99.90;;;;;;5032198;28;20431;-56
2023/12/11 01:30:12;;;;;;;34.30;3.33;;;10.50;99.90;;;;;;5032464;28;20482;-57
2023/12/11 01:32:38;;;;;;;43.17;3.20;;;10.50;99.90;;;;;;5032199;28;20075;-57
2023/12/11 01:35:04;;;;;;;62.90;5.35;;;10.50;99.90;;;;;;5032319;28;20025;-57
2023/12/11 01:37:29;;;;;;;31.80;4.82;;;10.50;99.90;;;;;;5035917;28;20026;-55
2023/12/11 01:39:55;;;;;;;39.92;4.60;;;10.60;99.90;;;;;;5035805;28;20384;-57
2023/12/11 01:42:21;;;;;;;45.75;4.90;;;10.50;99.90;;;;;;5036213;28;20022;-57
2023/12/11 01:44:46;;;;;;;33.63;3.33;;;10.50;99.90;;;;;;5035882;28;20033;-58
2023/12/11 01:47:12;;;;;;;33.60;3.67;;;10.50;99.90;;;;;;5035804;28;20026;-57
2023/12/11 01:49:38;;;;;;;41.38;3.85;;;10.50;99.90;;;;;;5035823;28;20379;-57
2023/12/11 01:52:07;;;;;;;27.00;5.78;;;10.40;99.90;;;;;;5035929;28;20029;-57
2023/12/11 01:54:34;;;;;;;46.85;4.07;;;10.30;99.90;;;;;;5035703;28;20087;-56
2023/12/11 01:57:00;;;;;;;37.80;3.67;;;10.20;99.90;;;;;;5035721;28;20029;-57
2023/12/11 01:59:26;;;;;;;26.92;4.40;;;10.30;99.90;;;;;;5035608;28;20447;-56
2023/12/11 02:01:53;;;;;;;33.97;4.60;;;10.20;99.90;;;;;;5034115;28;20029;-56
2023/12/11 02:04:19;;;;;;;24.53;3.53;;;10.20;99.90;;;;;;5015846;28;20029;-56
2023/12/11 02:06:45;;;;;;;39.55;4.53;;;10.10;99.90;;;;;;5034399;28;20328;-54
2023/12/11 02:09:11;;;;;;;35.38;3.97;;;10.20;99.90;;;;;;5035235;28;20059;-55
2023/12/11 02:11:36;;;;;;;28.77;3.58;;;10.10;99.90;;;;;;5035654;28;20546;-56
2023/12/11 02:14:02;;;;;;;33.92;3.60;;;10.10;99.90;;;;;;5035456;28;20109;-55
2023/12/11 02:16:28;;;;;;;33.15;4.10;;;10.10;99.90;;;;;;5035333;28;20031;-56
2023/12/11 02:18:54;;;;;;;38.20;4.60;;;10.00;99.90;;;;;;5035209;28;20120;-56
2023/12/11 02:21:19;;;;;;;29.38;5.15;;;10.00;99.90;;;;;;5034873;28;20045;-53
2023/12/11 02:23:57;;;;;;;26.70;3.22;;;10.00;99.90;;;;;;5035450;28;20032;-56
2023/12/11 02:26:23;;;;;;;;;;;10.10;99.90;;;;;;5035585;28;20025;-58
2023/12/11 02:28:49;;;;;;;27.15;3.22;;;10.10;99.90;;;;;;5030891;28;19920;-53
2023/12/11 02:31:14;;;;;;;21.63;3.13;;;10.10;99.90;;;;;;5023913;28;20029;-53
2023/12/11 02:33:41;;;;;;;28.88;3.58;;;10.10;99.90;;;;;;5034304;28;20395;-57
2023/12/11 02:36:07;;;;;;;22.08;3.78;;;10.10;99.90;;;;;;5018450;28;20030;-59
2023/12/11 02:38:32;;;;;;;29.63;2.72;;;10.00;99.90;;;;;;5028861;28;20061;-53
2023/12/11 02:40:58;;;;;;;49.63;4.93;;;10.00;99.90;;;;;;5027538;28;20049;-55
2023/12/11 02:43:24;;;;;;;29.40;4.50;;;10.00;99.90;;;;;;5028327;28;20021;-55
2023/12/11 02:45:49;;;;;;;24.23;2.75;;;10.00;99.90;;;;;;5034706;28;20147;-54
2023/12/11 02:48:15;;;;;;;28.33;4.28;;;10.00;99.90;;;;;;5033474;28;20387;-53
2023/12/11 02:50:41;;;;;;;29.25;3.55;;;10.00;99.90;;;;;;5034995;28;20032;-51
2023/12/11 02:53:07;;;;;;;29.00;4.03;;;10.10;99.90;;;;;;5034740;28;20025;-53
2023/12/11 02:55:33;;;;;;;33.58;4.03;;;10.10;99.90;;;;;;5032496;28;20495;-54
2023/12/11 02:58:00;;;;;;;24.42;4.47;;;10.10;99.90;;;;;;5027592;28;20030;-54
2023/12/11 03:00:27;;;;;;;20.80;3.22;;;10.10;99.90;;;;;;5033824;28;20383;-56
2023/12/11 03:02:52;;;;;;;36.53;3.97;;;10.10;99.90;;;;;;5034282;28;20087;-57
2023/12/11 03:05:18;;;;;;;32.15;4.85;;;10.10;99.90;;;;;;5034455;28;20104;-54
2023/12/11 03:07:44;;;;;;;30.10;3.38;;;10.10;99.90;;;;;;5034635;28;20022;-52
2023/12/11 03:10:10;;;;;;;25.40;3.88;;;10.10;99.90;;;;;;5033672;28;20091;-53
2023/12/11 03:12:35;;;;;;;33.50;4.03;;;10.20;99.90;;;;;;5033886;28;20021;-54
2023/12/11 03:15:03;;;;;;;48.53;4.32;;;10.20;99.90;;;;;;5034028;28;20045;-54
2023/12/11 03:17:28;;;;;;;27.37;5.50;;;10.20;99.90;;;;;;5034028;28;20108;-54
2023/12/11 03:19:54;;;;;;;21.45;3.47;;;10.20;99.90;;;;;;5034073;28;20928;-56
2023/12/11 03:22:20;;;;;;;35.00;3.67;;;10.20;99.90;;;;;;5033946;28;20048;-55
2023/12/11 03:24:46;;;;;;;25.38;3.78;;;10.20;99.90;;;;;;5034302;28;20033;-56
2023/12/11 03:27:12;;;;;;;35.45;2.80;;;10.20;99.90;;;;;;5033545;28;20025;-55
2023/12/11 03:29:38;;;;;;;29.38;3.15;;;10.20;99.90;;;;;;5034256;28;20048;-56
2023/12/11 03:32:04;;;;;;;26.20;3.42;;;10.20;99.90;;;;;;5033985;28;20021;-55
2023/12/11 03:34:29;;;;;;;46.08;4.95;;;10.30;99.90;;;;;;5033991;28;20036;-55
2023/12/11 03:36:55;;;;;;;57.38;5.03;;;10.30;99.90;;;;;;5033722;28;20030;-56
2023/12/11 03:39:21;;;;;;;31.80;3.97;;;10.30;99.90;;;;;;5032934;28;20028;-57
2023/12/11 03:41:48;;;;;;;48.75;4.18;;;10.30;99.90;;;;;;5031702;28;20014;-42
2023/12/11 03:44:32;;;;;;;40.97;5.20;;;10.30;99.90;;;;;;5033600;28;20025;-45
2023/12/11 03:46:58;;;;;;;25.77;3.15;;;10.40;99.90;;;;;;5033447;28;20018;-41
2023/12/11 03:49:24;;;;;;;48.85;4.15;;;10.40;99.90;;;;;;5033617;28;20026;-40
2023/12/11 03:51:49;;;;;;;25.58;3.08;;;10.50;99.90;;;;;;5029078;28;20029;-40
2023/12/11 03:54:16;;;;;;;36.42;5.93;;;10.50;99.90;;;;;;5021283;28;20388;-39
2023/12/11 03:56:42;;;;;;;42.03;4.15;;;10.60;99.90;;;;;;5013672;28;20022;-38
2023/12/11 03:59:08;;;;;;;42.90;4.35;;;10.50;99.90;;;;;;5031738;28;20025;-41
2023/12/11 04:01:34;;;;;;;38.85;5.05;;;10.50;99.90;;;;;;5033641;28;20391;-39
2023/12/11 04:04:00;;;;;;;32.85;5.95;;;10.50;99.90;;;;;;5033181;28;20028;-40
2023/12/11 04:06:26;;;;;;;23.98;3.58;;;10.60;99.90;;;;;;5033369;28;20092;-38
2023/12/11 04:08:52;;;;;;;45.55;5.93;;;10.50;99.90;;;;;;5033154;28;20017;-40
2023/12/11 04:11:18;;;;;;;34.88;3.83;;;10.50;99.90;;;;;;5033078;28;20095;-39
2023/12/11 04:13:44;;;;;;;33.50;4.85;;;10.50;99.90;;;;;;5033346;28;20017;-54
2023/12/11 04:16:10;;;;;;;30.38;3.47;;;10.50;99.90;;;;;;5033142;28;20491;-52
2023/12/11 04:18:36;;;;;;;40.53;5.75;;;10.50;99.90;;;;;;5033275;28;20475;-54
2023/12/11 04:21:02;;;;;;;30.80;4.00;;;10.50;99.90;;;;;;5031237;28;20045;-53
2023/12/11 04:23:28;;;;;;;39.35;5.53;;;10.50;99.90;;;;;;5033010;28;20071;-53
2023/12/11 04:25:57;;;;;;;31.00;3.40;;;10.50;99.90;;;;;;5032871;28;20426;-55
2023/12/11 04:28:22;;;;;;;31.90;4.65;;;10.60;99.90;;;;;;5031649;28;20013;-43
2023/12/11 04:30:48;;;;;;;23.33;3.10;;;10.60;99.90;;;;;;5032908;28;20037;-39
2023/12/11 04:33:14;;;;;;;26.15;3.95;;;10.60;99.90;;;;;;5033120;28;20029;-42
2023/12/11 04:35:40;;;;;;;34.58;4.05;;;10.60;99.90;;;;;;5028303;28;20021;-43
2023/12/11 04:38:05;;;;;;;24.13;2.80;;;10.60;99.90;;;;;;5046082;28;20414;-46
2023/12/11 04:40:31;;;;;;;29.23;3.67;;;10.60;99.90;;;;;;5032475;28;20383;-53
2023/12/11 04:42:57;;;;;;;30.80;4.00;;;10.50;99.90;;;;;;5032197;28;20387;-56
2023/12/11 04:45:22;;;;;;;35.40;3.58;;;10.50;99.90;;;;;;5032407;28;20527;-57
2023/12/11 04:47:48;;;;;;;43.00;5.38;;;10.60;99.90;;;;;;5032446;28;20453;-51
2023/12/11 04:50:14;;;;;;;34.75;4.18;;;10.50;99.90;;;;;;5032668;28;20087;-56
2023/12/11 04:52:39;;;;;;;26.75;3.17;;;10.50;99.90;;;;;;5032708;28;20056;-40
2023/12/11 04:55:05;;;;;;;25.23;4.03;;;10.60;99.90;;;;;;5031837;28;20151;-45
2023/12/11 04:57:31;;;;;;;36.20;2.95;;;10.60;99.90;;;;;;5032482;28;20475;-43
2023/12/11 04:59:57;;;;;;;24.50;3.92;;;10.60;99.90;;;;;;5032388;28;20052;-51
2023/12/11 05:02:23;;;;;;;35.72;4.22;;;10.60;99.90;;;;;;5032521;28;20391;-47
2023/12/11 05:04:48;;;;;;;26.58;4.00;;;10.60;99.90;;;;;;5032577;28;20533;-44
2023/12/11 05:07:14;;;;;;;28.50;3.42;;;10.60;99.90;;;;;;5032526;28;20034;-45
2023/12/11 05:09:40;;;;;;;31.65;4.35;;;10.60;99.90;;;;;;5032478;28;20045;-42
2023/12/11 05:12:06;;;;;;;25.67;4.10;;;10.50;99.90;;;;;;5036003;28;20406;-53
2023/12/11 05:14:32;;;;;;;28.90;4.00;;;10.60;99.90;;;;;;5036491;28;20032;-43
2023/12/11 05:16:57;;;;;;;41.80;3.90;;;10.60;99.90;;;;;;5036391;28;20025;-40
2023/12/11 05:19:23;;;;;;;34.70;4.10;;;10.70;99.90;;;;;;5035096;28;20014;-42
2023/12/11 05:21:48;;;;;;;24.42;3.22;;;10.70;99.90;;;;;;5031675;28;20037;-44
2023/12/11 05:24:15;;;;;;;20.17;3.17;;;10.70;99.90;;;;;;5035857;28;20054;-43
2023/12/11 05:26:40;;;;;;;30.58;4.05;;;10.70;99.90;;;;;;5035921;28;20471;-43
2023/12/11 05:29:06;;;;;;;29.15;4.35;;;10.70;99.90;;;;;;5036126;28;20025;-42
2023/12/11 05:31:33;;;;;;;29.02;4.00;;;10.70;99.90;;;;;;5035661;28;20446;-42
2023/12/11 05:33:58;;;;;;;28.55;3.72;;;10.60;99.90;;;;;;5035904;28;20539;-41
2023/12/11 05:36:24;;;;;;;20.48;3.17;;;10.60;99.90;;;;;;5036156;28;20112;-41
2023/12/11 05:38:50;;;;;;;27.23;3.20;;;10.60;99.90;;;;;;5035616;28;20029;-39
2023/12/11 05:41:16;;;;;;;22.25;3.00;;;10.60;99.90;;;;;;5034530;28;20104;-41
2023/12/11 05:43:42;;;;;;;26.10;3.45;;;10.60;99.90;;;;;;5035961;28;20024;-43
2023/12/11 05:46:08;;;;;;;17.98;2.63;;;10.60;99.90;;;;;;5035241;28;20112;-42
2023/12/11 05:48:34;;;;;;;22.90;2.67;;;10.60;99.90;;;;;;5034766;28;20044;-38
2023/12/11 05:51:00;;;;;;;24.65;2.35;;;10.60;99.90;;;;;;5035766;28;20038;-41
2023/12/11 05:53:25;;;;;;;24.45;3.47;;;10.60;99.90;;;;;;5035849;28;20025;-43
2023/12/11 05:55:51;;;;;;;17.02;2.65;;;10.50;99.90;;;;;;5034997;28;20510;-38
2023/12/11 05:58:17;;;;;;;27.33;2.95;;;10.50;99.90;;;;;;5035639;28;20397;-38
2023/12/11 06:00:44;;;;;;;17.88;3.15;;;10.50;99.90;;;;;;5035663;28;20479;-41
2023/12/11 06:03:10;;;;;;;17.83;2.42;;;10.50;99.90;;;;;;5035616;28;20110;-41
2023/12/11 06:05:35;;;;;;;31.75;2.35;;;10.40;99.90;;;;;;5035238;28;20029;-39
2023/12/11 06:08:02;;;;;;;27.35;3.13;;;10.40;99.90;;;;;;5035563;28;20029;-42
2023/12/11 06:10:27;;;;;;;11.02;1.98;;;10.40;99.90;;;;;;5034592;28;20113;-43
2023/12/11 06:12:53;;;;;;;24.77;2.67;;;10.40;99.90;;;;;;5033915;28;20057;-39
2023/12/11 06:15:19;;;;;;;12.73;2.78;;;10.30;99.90;;;;;;5033246;28;20032;-39
2023/12/11 06:17:44;;;;;;;14.25;2.28;;;10.20;99.90;;;;;;5034782;28;20487;-43
2023/12/11 06:20:11;;;;;;;12.68;3.08;;;10.20;99.90;;;;;;5035120;28;20084;-43
2023/12/11 06:22:36;;;;;;;19.63;2.58;;;10.20;99.90;;;;;;5034310;28;20049;-42
2023/12/11 06:25:02;;;;;;;18.75;2.83;;;10.20;99.90;;;;;;5034815;28;20094;-43
2023/12/11 06:27:28;;;;;;;15.25;2.33;;;10.20;99.90;;;;;;5033701;28;20026;-39
2023/12/11 06:29:57;;;;;;;23.38;2.47;;;10.20;99.90;;;;;;5033842;28;20483;-36
2023/12/11 06:32:22;;;;;;;19.73;3.50;;;10.20;99.90;;;;;;5033936;28;20056;-37
2023/12/11 06:34:48;;;;;;;28.80;2.45;;;10.20;99.90;;;;;;5035271;28;20021;-37
2023/12/11 06:37:14;;;;;;;11.18;1.85;;;10.20;99.90;;;;;;5035001;28;20029;-41
2023/12/11 06:39:39;;;;;;;28.88;3.08;;;10.20;99.90;;;;;;5034948;28;20114;-39
2023/12/11 06:42:05;;;;;;;26.88;3.45;;;10.10;99.90;;;;;;5035182;28;20164;-44
2023/12/11 06:44:31;;;;;;;16.73;1.60;;;10.20;99.90;;;;;;5035172;28;20014;-39
2023/12/11 06:46:57;;;;;;;17.10;2.22;;;10.10;99.90;;;;;;5034586;28;20024;-41
2023/12/11 06:49:23;;;;;;;13.43;1.63;;;10.10;99.90;;;;;;5034842;28;20029;-39
2023/12/11 06:51:49;;;;;;;12.43;2.25;;;10.00;99.90;;;;;;5034813;28;20052;-39
2023/12/11 06:54:15;;;;;;;16.95;3.35;;;9.90;99.90;;;;;;5034577;28;20533;-37
2023/12/11 06:56:41;;;;;;;13.10;2.00;;;9.90;99.90;;;;;;5034663;28;20026;-37
2023/12/11 06:59:07;;;;;;;15.57;1.65;;;9.90;99.90;;;;;;5034491;28;20030;-35
2023/12/11 07:01:34;;;;;;;17.90;3.00;;;9.90;99.90;;;;;;5034565;28;20097;-37
2023/12/11 07:04:00;;;;;;;9.07;1.60;;;9.80;99.90;;;;;;5018771;28;20033;-37
2023/12/11 07:06:26;;;;;;;16.02;2.08;;;9.90;99.90;;;;;;5013445;28;20369;-39
2023/12/11 07:08:51;;;;;;;19.27;1.90;;;9.90;99.90;;;;;;5014679;28;20101;-38
2023/12/11 07:11:17;;;;;;;14.10;1.70;;;9.90;99.90;;;;;;5014560;28;20033;-36
2023/12/11 07:13:43;;;;;;;10.48;2.42;;;9.90;99.90;;;;;;5014632;28;20052;-38
2023/12/11 07:16:09;;;;;;;16.90;1.70;;;9.90;99.90;;;;;;5014368;28;20058;-39
2023/12/11 07:18:35;;;;;;;20.27;2.40;;;10.00;99.90;;;;;;5014359;28;20084;-38
2023/12/11 07:21:01;;;;;;;10.75;2.70;;;10.00;99.90;;;;;;5014265;28;20518;-37
2023/12/11 07:23:27;;;;;;;18.80;2.45;;;9.90;99.90;;;;;;5014408;28;20014;-37
2023/12/11 07:25:53;;;;;;;7.95;2.15;;;10.00;99.90;;;;;;5014305;28;20441;-40
2023/12/11 07:28:18;;;;;;;17.10;2.22;;;10.00;99.90;;;;;;5019954;28;20025;-42
2023/12/11 07:30:44;;;;;;;15.95;1.83;;;10.00;99.90;;;;;;5033870;28;20101;-39
2023/12/11 07:33:10;;;;;;;12.15;1.33;;;9.90;99.90;;;;;;5033102;28;20075;-39
2023/12/11 07:35:35;;;;;;;10.75;1.60;;;9.90;99.90;;;;;;5034126;28;20044;-36
2023/12/11 07:38:02;;;;;;;14.13;1.70;;;9.90;99.90;;;;;;5033863;28;20028;-38
2023/12/11 07:40:29;;;;;;;11.25;1.52;;;9.90;99.90;;;;;;5033615;28;20029;-38
2023/12/11 07:42:54;;;;;;;25.80;2.65;;;9.80;99.90;;;;;;5033878;28;20056;-37
2023/12/11 07:45:22;;;;;;;13.15;1.25;;;9.80;99.90;;;;;;5033660;28;20461;-38
2023/12/11 07:47:47;;;;;;;15.55;1.42;;;9.80;99.90;;;;;;5033580;28;20048;-37
2023/12/11 07:50:13;;;;;;;9.45;2.13;;;9.90;99.90;;;;;;5032276;28;20106;-38
2023/12/11 07:52:39;;;;;;;8.38;1.17;;;9.90;99.90;;;;;;5033522;28;20029;-40
2023/12/11 07:55:05;;;;;;;5.32;1.38;;;9.80;99.90;;;;;;5033535;28;20075;-38
2023/12/11 07:57:31;;;;;;;15.57;1.15;;;9.80;99.90;;;;;;5033728;28;20479;-38
2023/12/11 07:59:57;;;;;;;9.45;1.90;;;9.80;99.90;;;;;;5033068;28;20029;-39
2023/12/11 08:02:22;;;;;;;19.67;2.05;;;9.80;99.90;;;;;;5033272;28;20024;-38
2023/12/11 08:04:48;;;;;;;16.30;1.65;;;9.80;99.90;;;;;;5033380;28;20506;-37
2023/12/11 08:07:15;;;;;;;9.02;1.92;;;9.80;99.90;;;;;;5033320;28;20433;-41
2023/12/11 08:09:41;;;;;;;17.38;2.20;;;9.80;99.90;;;;;;5033281;28;20483;-44
2023/12/11 08:12:07;;;;;;;9.23;2.03;;;9.90;99.90;;;;;;5033166;28;20025;-39
2023/12/11 08:14:33;;;;;;;18.92;1.60;;;9.90;99.90;;;;;;5033200;28;20101;-37
2023/12/11 08:16:59;;;;;;;8.93;1.48;;;10.00;99.90;;;;;;5033119;28;20030;-40
2023/12/11 08:19:25;;;;;;;16.33;1.83;;;10.00;99.90;;;;;;5032914;28;20509;-39
2023/12/11 08:21:53;;;;;;;8.05;1.67;;;10.00;99.90;;;;;;5033049;28;20491;-38
2023/12/11 08:24:19;;;;;;;13.77;2.15;;;10.00;99.90;;;;;;5033160;28;20098;-39
2023/12/11 08:26:46;;;;;;;11.07;1.40;;;9.90;99.90;;;;;;5033005;28;20537;-38
2023/12/11 08:29:12;;;;;;;15.40;3.53;;;10.00;99.90;;;;;;5033281;28;20026;-40
2023/12/11 08:31:37;;;;;;;9.95;1.52;;;10.00;99.90;;;;;;5032914;28;20483;-43
2023/12/11 08:34:03;;;;;;;13.43;1.70;;;10.00;99.90;;;;;;5032961;28;20100;-40
2023/12/11 08:36:29;;;;;;;7.03;2.13;;;9.90;99.90;;;;;;5032696;28;20063;-43
2023/12/11 08:38:54;;;;;;;12.35;1.60;;;9.90;99.90;;;;;;5032787;28;20032;-43
2023/12/11 08:41:20;;;;;;;16.27;1.88;;;10.00;99.90;;;;;;5032731;28;20032;-38
2023/12/11 08:43:46;;;;;;;12.57;1.40;;;9.90;99.90;;;;;;5032786;28;20017;-40
2023/12/11 08:46:12;;;;;;;9.80;1.92;;;9.90;99.90;;;;;;5032937;28;20484;-42
2023/12/11 08:48:38;;;;;;;4.43;1.35;;;10.10;99.90;;;;;;5032967;28;20032;-42
2023/12/11 08:51:05;;;;;;;11.73;1.90;;;10.10;99.90;;;;;;5032685;28;20079;-45
2023/12/11 08:53:30;;;;;;;14.13;1.48;;;10.00;99.90;;;;;;5032877;28;20084;-40
2023/12/11 08:55:56;;;;;;;13.68;2.10;;;10.10;99.90;;;;;;5032713;28;20026;-42
2023/12/11 08:58:23;;;;;;;7.13;1.30;;;10.10;99.90;;;;;;5032529;28;20095;-42
2023/12/11 09:00:50;;;;;;;8.18;2.13;;;10.10;99.90;;;;;;5032654;28;20025;-44
2023/12/11 09:03:16;;;;;;;4.93;1.75;;;10.10;99.90;;;;;;5031249;28;20391;-42
2023/12/11 09:05:41;;;;;;;12.73;2.33;;;10.10;99.90;;;;;;5032888;28;20495;-41
2023/12/11 09:08:09;;;;;;;18.65;2.63;;;10.10;99.90;;;;;;5032860;28;20021;-56
2023/12/11 09:10:36;;;;;;;12.05;1.85;;;10.00;99.90;;;;;;5032742;28;20484;-57
2023/12/11 09:13:02;;;;;;;15.07;1.70;;;10.10;99.90;;;;;;5031967;28;20458;-56
2023/12/11 09:15:28;;;;;;;7.20;1.73;;;10.10;99.90;;;;;;5032144;28;20079;-57
2023/12/11 09:17:54;;;;;;;11.57;1.88;;;10.10;99.90;;;;;;5032673;28;20025;-57
2023/12/11 09:20:19;;;;;;;14.52;3.05;;;10.10;99.90;;;;;;5031810;28;20545;-54
2023/12/11 09:22:46;;;;;;;15.43;2.03;;;10.10;99.90;;;;;;5031734;28;20087;-56
2023/12/11 09:25:12;;;;;;;9.98;1.92;;;10.10;99.90;;;;;;5030894;28;20017;-57
2023/12/11 09:27:37;;;;;;;10.55;1.88;;;10.10;99.90;;;;;;5032416;28;20023;-55
2023/12/11 09:30:05;;;;;;;11.88;1.95;;;10.00;99.90;;;;;;5030513;28;20037;-57
2023/12/11 09:32:31;;;;;;;10.77;1.77;;;9.90;99.90;;;;;;5031989;28;20494;-55
2023/12/11 09:34:56;;;;;;;19.42;4.38;;;9.70;99.90;;;;;;5032102;28;20164;-56
2023/12/11 09:37:22;;;;;;;11.50;2.17;;;9.70;99.90;;;;;;5032340;28;20025;-58
2023/12/11 09:39:49;;;;;;;7.38;2.20;;;9.70;99.90;;;;;;5032132;28;20017;-57
2023/12/11 09:42:15;;;;;;;10.18;2.05;;;9.60;99.90;;;;;;5032206;28;20502;-55
2023/12/11 09:44:44;;;;;;;20.27;3.05;;;9.70;99.90;;;;;;5032474;28;20368;-55
2023/12/11 09:47:14;;;;;;;13.98;2.90;;;9.80;99.90;;;;;;5031857;28;20479;-56
2023/12/11 09:49:40;;;;;;;19.73;2.78;;;9.80;99.90;;;;;;5031664;28;20491;-53
2023/12/11 09:52:06;;;;;;;18.42;2.83;;;9.80;99.90;;;;;;5032023;28;20025;-52
2023/12/11 09:54:32;;;;;;;12.10;2.33;;;9.80;99.90;;;;;;5032043;28;20032;-55
2023/12/11 09:56:58;;;;;;;13.68;1.92;;;9.90;99.90;;;;;;5033557;28;20025;-56
2023/12/11 09:59:26;;;;;;;14.30;4.85;;;9.90;99.90;;;;;;5035990;28;20468;-55
2023/12/11 10:01:52;;;;;;;21.40;4.22;;;9.90;99.90;;;;;;5035373;28;20472;-54
2023/12/11 10:04:18;;;;;;;22.55;3.42;;;9.90;99.90;;;;;;5035669;28;20542;-57
2023/12/11 10:06:43;;;;;;;19.23;2.70;;;9.90;99.90;;;;;;5035407;28;20101;-52
2023/12/11 10:09:30;;;;;;;16.15;2.78;;;9.80;99.90;;;;;;5035725;28;20022;-55
2023/12/11 10:11:59;;;;;;;14.90;2.90;;;9.80;99.90;;;;;;5035738;28;20536;-54
2023/12/11 10:14:24;;;;;;;28.83;3.85;;;9.80;99.90;;;;;;5035527;28;20032;-55
2023/12/11 10:16:53;;;;;;;21.45;2.78;;;9.70;99.90;;;;;;5033847;28;20457;-55
2023/12/11 10:19:30;;;;;;;24.80;2.80;;;9.70;99.90;;;;;;5034756;28;20663;-55
2023/12/11 10:21:56;;;;;;;14.23;3.50;;;9.90;99.90;;;;;;5034800;28;20581;-57
2023/12/11 10:24:22;;;;;;;14.95;2.15;;;9.90;99.90;;;;;;5035528;28;20048;-50
2023/12/11 10:26:55;;;;;;;12.55;1.85;;;9.90;99.90;;;;;;5035033;28;20028;-54
2023/12/11 10:29:26;;;;;;;13.40;1.55;;;9.90;99.90;;;;;;5035197;28;20365;-56
2023/12/11 10:32:00;;;;;;;14.35;1.88;;;9.80;99.90;;;;;;5022448;28;20105;-55
2023/12/11 10:34:50;;;;;;;10.95;1.80;;;9.70;99.90;;;;;;5016396;28;20034;-52
2023/12/11 10:37:19;;;;;;;11.38;1.45;;;9.60;99.90;;;;;;5015295;28;20040;-53
2023/12/11 10:39:55;;;;;;;19.33;1.80;;;9.40;99.90;;;;;;5015580;28;20026;-55
2023/12/11 10:42:21;;;;;;;10.63;1.65;;;9.30;99.90;;;;;;5034910;28;20100;-55
2023/12/11 10:44:48;;;;;;;12.13;2.00;;;9.20;99.90;;;;;;5034639;28;20021;-42
2023/12/11 10:47:15;;;;;;;11.38;2.67;;;9.20;99.90;;;;;;5034827;28;20097;-46
2023/12/11 10:49:41;;;;;;;25.02;3.60;;;9.30;99.90;;;;;;5034846;28;20033;-45
2023/12/11 10:52:06;;;;;;;4.43;1.88;;;9.30;99.90;;;;;;5034873;28;20048;-57
2023/12/11 10:54:35;;;;;;;16.98;2.22;;;9.40;99.90;;;;;;5034746;28;20029;-56
2023/12/11 10:57:01;;;;;;;8.50;1.45;;;9.40;99.90;;;;;;5034640;28;20069;-55
2023/12/11 10:59:33;;;;;;;10.95;1.73;;;9.40;99.90;;;;;;5034391;28;20510;-55
2023/12/11 11:02:01;;;;;;;19.98;2.17;;;9.50;99.90;;;;;;5014837;28;20029;-55
2023/12/11 11:04:30;;;;;;;4.72;1.27;;;9.50;99.90;;;;;;5018954;28;20475;-57
2023/12/11 11:07:15;;;;;;;11.30;1.35;;;9.50;99.90;;;;;;5033668;28;20523;-53
2023/12/11 11:09:44;;;;;;;14.52;1.65;;;9.50;99.90;;;;;;5020205;28;20051;-44
2023/12/11 11:12:38;;;;;;;12.15;1.40;;;9.60;99.90;;;;;;5034289;28;20116;-49
2023/12/11 11:15:05;;;;;;;10.50;2.50;;;9.60;99.90;;;;;;5033983;28;20116;-47
2023/12/11 11:18:02;;;;;;;8.70;2.25;;;9.70;99.90;;;;;;5033001;28;20508;-49
2023/12/11 11:20:37;;;;;;;9.05;1.40;;;9.80;99.90;;;;;;5034007;28;20029;-47
2023/12/11 11:23:15;;;;;;;15.10;2.28;;;9.90;99.90;;;;;;5033574;28;20049;-41
2023/12/11 11:25:42;;;;;;;4.60;2.15;;;10.00;99.90;;;;;;5032528;28;20030;-44
2023/12/11 11:28:44;;;;;;;7.97;1.30;;;10.10;99.90;;;;;;5034025;28;20033;-43
2023/12/11 11:31:11;;;;;;;14.20;2.33;;;10.10;99.90;;;;;;5033785;28;20036;-43
2023/12/11 11:33:43;;;;;;;15.90;2.27;;;10.20;99.90;;;;;;5032058;28;20496;-49
2023/12/11 11:36:09;;;;;;;7.07;2.33;;;10.30;99.90;;;;;;5033834;28;20092;-46
2023/12/11 11:38:54;;;;;;;12.73;1.52;;;10.30;99.90;;;;;;5033749;28;20493;-48
2023/12/11 11:41:21;;;;;;;10.20;1.77;;;10.40;99.90;;;;;;5014250;28;20679;-44
2023/12/11 11:44:15;;;;;;;13.67;2.40;;;10.40;99.90;;;;;;5028647;28;20387;-49
2023/12/11 11:46:55;;;;;;;11.05;1.83;;;10.30;99.90;;;;;;5033320;28;20048;-49
2023/12/11 11:49:31;;;;;;;8.95;1.10;;;10.20;99.90;;;;;;5033624;28;20029;-46
2023/12/11 11:51:57;;;;;;;8.43;2.33;;;10.20;99.90;;;;;;5033782;28;20552;-45
2023/12/11 11:54:24;;;;;;;14.52;1.25;;;10.20;99.90;;;;;;5033572;28;20033;-50
2023/12/11 11:56:50;;;;;;;12.65;1.20;;;10.20;99.90;;;;;;5033567;28;20029;-49
2023/12/11 11:59:17;;;;;;;5.05;1.52;;;10.20;99.90;;;;;;5033533;28;20388;-51
2023/12/11 12:01:57;;;;;;;3.95;1.88;;;10.20;99.90;;;;;;5033735;28;20483;-47
2023/12/11 12:04:26;;;;;;;16.25;2.25;;;10.30;99.90;;;;;;5033617;28;20040;-46
2023/12/11 12:06:55;;;;;;;7.72;1.55;;;10.40;99.90;;;;;;5033382;28;20490;-48
2023/12/11 12:09:20;;;;;;;6.90;1.60;;;10.30;99.90;;;;;;5033632;28;20483;-47
2023/12/11 12:11:46;;;;;;;6.75;1.40;;;10.30;99.90;;;;;;5033571;28;20033;-49
2023/12/11 12:14:15;;;;;;;12.18;1.95;;;10.30;99.90;;;;;;5033249;28;20018;-51
2023/12/11 12:16:41;;;;;;;9.23;1.48;;;10.40;99.90;;;;;;5033010;28;20562;-51
2023/12/11 12:19:07;;;;;;;5.97;1.60;;;10.40;99.90;;;;;;5032591;28;20112;-48
2023/12/11 12:21:51;;;;;;;6.15;1.77;;;10.50;99.90;;;;;;5031807;28;20380;-50
2023/12/11 12:24:18;;;;;;;7.25;1.80;;;10.50;99.90;;;;;;5033271;28;20037;-49
2023/12/11 12:26:46;;;;;;;16.50;1.90;;;10.50;99.90;;;;;;5033376;28;20395;-49
2023/12/11 12:29:13;;;;;;;8.82;2.03;;;10.40;99.90;;;;;;5032830;28;20040;-50
2023/12/11 12:31:39;;;;;;;1.95;1.63;;;10.40;99.90;;;;;;5033176;28;20391;-46
2023/12/11 12:34:06;;;;;;;12.25;1.45;;;10.40;99.90;;;;;;5031561;28;20029;-48
2023/12/11 12:36:33;;;;;;;6.03;0.80;;;10.40;99.90;;;;;;5032934;28;20079;-49
2023/12/11 12:38:59;;;;;;;5.55;1.35;;;10.40;99.90;;;;;;5032911;28;20547;-44